sensor_id;sensor_type;location;lat;lon;timestamp;P1;P2;P0
76304;PMS7003;65111;50.536;19.204;2023-03-26T00:01:34;1.33;1.00;1.00
76304;PMS7003;65111;50.536;19.204;2023-03-26T00:04:01;4.00;3.00;1.00
76304;PMS7003;65111;50.536;19.204;2023-03-26T00:06:31;1.00;1.00;0.67
76304;PMS7003;65111;50.536;19.204;2023-03-26T00:09:01;3.00;1.00;1.00
76304;PMS7003;65111;50.536;19.204;2023-03-26T00:11:28;1.00;1.00;1.00
76304;PMS7003;65111;50.536;19.204;2023-03-26T00:13:54;3.00;3.00;2.50
76304;PMS7003;65111;50.536;19.204;2023-03-26T00:16:23;1.50;1.50;1.00
76304;PMS7003;65111;50.536;19.204;2023-03-26T00:18:52;2.00;2.00;1.00
76304;PMS7003;65111;50.536;19.204;2023-03-26T00:21:19;3.00;3.00;1.00
76304;PMS7003;65111;50.536;19.204;2023-03-26T00:23:55;8.00;5.00;4.00
76304;PMS7003;65111;50.536;19.204;2023-03-26T00:26:26;5.00;5.00;4.00
76304;PMS7003;65111;50.536;19.204;2023-03-26T00:28:55;7.00;4.50;4.00
76304;PMS7003;65111;50.536;19.204;2023-03-26T00:31:22;15.00;14.00;8.00
76304;PMS7003;65111;50.536;19.204;2023-03-26T00:33:49;16.50;16.00;10.00
76304;PMS7003;65111;50.536;19.204;2023-03-26T00:36:23;10.50;9.00;5.00
76304;PMS7003;65111;50.536;19.204;2023-03-26T00:38:51;17.67;16.00;7.67
76304;PMS7003;65111;50.536;19.204;2023-03-26T00:41:18;10.00;10.00;7.00
76304;PMS7003;65111;50.536;19.204;2023-03-26T00:43:50;7.50;6.00;5.50
76304;PMS7003;65111;50.536;19.204;2023-03-26T00:46:20;4.50;4.00;2.50
76304;PMS7003;65111;50.536;19.204;2023-03-26T00:48:47;6.00;6.00;4.00
76304;PMS7003;65111;50.536;19.204;2023-03-26T00:51:15;7.33;7.00;5.33
76304;PMS7003;65111;50.536;19.204;2023-03-26T00:53:44;6.50;6.50;5.00
76304;PMS7003;65111;50.536;19.204;2023-03-26T00:56:11;5.33;5.33;3.33
76304;PMS7003;65111;50.536;19.204;2023-03-26T00:58:37;1.50;1.00;1.00
76304;PMS7003;65111;50.536;19.204;2023-03-26T01:01:05;2.50;2.50;2.50
76304;PMS7003;65111;50.536;19.204;2023-03-26T01:03:34;3.00;3.00;1.00
76304;PMS7003;65111;50.536;19.204;2023-03-26T01:06:05;2.50;2.50;2.00
76304;PMS7003;65111;50.536;19.204;2023-03-26T01:08:43;5.00;5.00;4.00
76304;PMS7003;65111;50.536;19.204;2023-03-26T01:11:17;4.00;3.00;3.00
76304;PMS7003;65111;50.536;19.204;2023-03-26T01:13:48;5.00;1.00;1.00
76304;PMS7003;65111;50.536;19.204;2023-03-26T01:16:26;2.00;1.00;1.00
76304;PMS7003;65111;50.536;19.204;2023-03-26T01:18:57;1.00;1.00;0.50
76304;PMS7003;65111;50.536;19.204;2023-03-26T01:21:26;3.00;2.00;1.00
76304;PMS7003;65111;50.536;19.204;2023-03-26T01:23:55;6.00;1.00;1.00
76304;PMS7003;65111;50.536;19.204;2023-03-26T01:29:10;3.00;3.00;2.00
76304;PMS7003;65111;50.536;19.204;2023-03-26T01:32:20;1.00;1.00;0.50
76304;PMS7003;65111;50.536;19.204;2023-03-26T01:40:02;4.00;3.00;3.00
76304;PMS7003;65111;50.536;19.204;2023-03-26T01:42:41;3.00;3.00;1.00
76304;PMS7003;65111;50.536;19.204;2023-03-26T01:45:19;1.67;1.67;1.00
76304;PMS7003;65111;50.536;19.204;2023-03-26T01:47:48;4.00;4.00;4.00
76304;PMS7003;65111;50.536;19.204;2023-03-26T01:50:15;10.00;9.00;6.00
76304;PMS7003;65111;50.536;19.204;2023-03-26T01:52:41;4.00;3.50;1.00
76304;PMS7003;65111;50.536;19.204;2023-03-26T01:55:07;6.50;6.50;5.00
76304;PMS7003;65111;50.536;19.204;2023-03-26T02:00:24;6.00;4.00;3.00
76304;PMS7003;65111;50.536;19.204;2023-03-26T02:08:34;4.00;4.00;3.00
76304;PMS7003;65111;50.536;19.204;2023-03-26T02:11:06;6.00;6.00;4.00
76304;PMS7003;65111;50.536;19.204;2023-03-26T02:13:36;3.00;3.00;3.00
76304;PMS7003;65111;50.536;19.204;2023-03-26T02:16:05;7.50;4.00;3.00
76304;PMS7003;65111;50.536;19.204;2023-03-26T02:18:34;9.00;9.00;6.00
76304;PMS7003;65111;50.536;19.204;2023-03-26T02:23:34;7.50;6.50;4.00
76304;PMS7003;65111;50.536;19.204;2023-03-26T02:26:04;4.00;1.00;0.00
76304;PMS7003;65111;50.536;19.204;2023-03-26T02:28:31;9.00;4.00;4.00
76304;PMS7003;65111;50.536;19.204;2023-03-26T02:30:57;5.33;5.33;3.33
76304;PMS7003;65111;50.536;19.204;2023-03-26T02:33:29;4.00;4.00;3.00
76304;PMS7003;65111;50.536;19.204;2023-03-26T02:35:58;6.00;6.00;6.00
76304;PMS7003;65111;50.536;19.204;2023-03-26T02:38:27;4.00;4.00;4.00
76304;PMS7003;65111;50.536;19.204;2023-03-26T02:40:54;6.00;4.00;3.00
76304;PMS7003;65111;50.536;19.204;2023-03-26T02:43:20;4.00;4.00;4.00
76304;PMS7003;65111;50.536;19.204;2023-03-26T02:45:47;3.00;3.00;3.00
76304;PMS7003;65111;50.536;19.204;2023-03-26T02:48:13;8.00;5.00;3.00
76304;PMS7003;65111;50.536;19.204;2023-03-26T02:50:40;3.67;3.67;3.00
76304;PMS7003;65111;50.536;19.204;2023-03-26T02:53:06;7.00;7.00;6.00
76304;PMS7003;65111;50.536;19.204;2023-03-26T02:55:32;6.50;6.50;5.00
76304;PMS7003;65111;50.536;19.204;2023-03-26T02:57:58;6.00;6.00;4.00
76304;PMS7003;65111;50.536;19.204;2023-03-26T03:00:24;7.00;4.00;4.00
76304;PMS7003;65111;50.536;19.204;2023-03-26T03:02:50;7.00;6.00;4.00
76304;PMS7003;65111;50.536;19.204;2023-03-26T03:05:18;6.00;6.00;3.00
76304;PMS7003;65111;50.536;19.204;2023-03-26T03:07:44;5.00;3.50;3.50
76304;PMS7003;65111;50.536;19.204;2023-03-26T03:10:12;4.00;3.00;2.33
76304;PMS7003;65111;50.536;19.204;2023-03-26T03:12:40;4.00;4.00;3.50
76304;PMS7003;65111;50.536;19.204;2023-03-26T03:15:07;3.00;3.00;3.00
76304;PMS7003;65111;50.536;19.204;2023-03-26T03:17:33;8.00;4.00;3.00
76304;PMS7003;65111;50.536;19.204;2023-03-26T03:19:59;7.00;7.00;5.00
76304;PMS7003;65111;50.536;19.204;2023-03-26T03:22:25;4.00;4.00;4.00
76304;PMS7003;65111;50.536;19.204;2023-03-26T03:24:51;7.00;4.00;4.00
76304;PMS7003;65111;50.536;19.204;2023-03-26T03:29:45;7.00;4.00;4.00
76304;PMS7003;65111;50.536;19.204;2023-03-26T03:32:11;4.00;4.00;3.00
76304;PMS7003;65111;50.536;19.204;2023-03-26T03:34:37;4.00;4.00;4.00
76304;PMS7003;65111;50.536;19.204;2023-03-26T03:37:03;3.00;3.00;3.00
76304;PMS7003;65111;50.536;19.204;2023-03-26T03:39:30;5.00;5.00;3.50
76304;PMS7003;65111;50.536;19.204;2023-03-26T03:41:57;9.00;7.00;6.00
76304;PMS7003;65111;50.536;19.204;2023-03-26T03:44:23;6.67;6.67;6.00
76304;PMS7003;65111;50.536;19.204;2023-03-26T03:46:49;6.50;6.00;4.00
76304;PMS7003;65111;50.536;19.204;2023-03-26T03:49:18;6.00;6.00;5.00
76304;PMS7003;65111;50.536;19.204;2023-03-26T03:51:44;7.00;7.00;6.00
76304;PMS7003;65111;50.536;19.204;2023-03-26T03:54:10;10.00;6.00;4.00
76304;PMS7003;65111;50.536;19.204;2023-03-26T03:56:36;12.00;7.00;6.00
76304;PMS7003;65111;50.536;19.204;2023-03-26T03:59:03;7.00;7.00;4.00
76304;PMS7003;65111;50.536;19.204;2023-03-26T04:01:30;7.50;7.50;5.00
76304;PMS7003;65111;50.536;19.204;2023-03-26T04:03:57;4.00;3.00;2.00
76304;PMS7003;65111;50.536;19.204;2023-03-26T04:06:23;4.00;4.00;3.00
76304;PMS7003;65111;50.536;19.204;2023-03-26T04:08:55;4.00;4.00;3.50
76304;PMS7003;65111;50.536;19.204;2023-03-26T04:11:21;7.00;6.00;3.00
76304;PMS7003;65111;50.536;19.204;2023-03-26T04:13:47;5.00;4.00;3.50
76304;PMS7003;65111;50.536;19.204;2023-03-26T04:16:13;6.33;6.00;5.33
76304;PMS7003;65111;50.536;19.204;2023-03-26T04:18:41;6.00;5.00;4.00
76304;PMS7003;65111;50.536;19.204;2023-03-26T04:21:09;6.00;5.33;3.67
76304;PMS7003;65111;50.536;19.204;2023-03-26T04:23:37;4.00;4.00;3.00
76304;PMS7003;65111;50.536;19.204;2023-03-26T04:26:04;4.00;4.00;3.00
76304;PMS7003;65111;50.536;19.204;2023-03-26T04:28:44;4.00;4.00;3.00
76304;PMS7003;65111;50.536;19.204;2023-03-26T04:31:15;6.00;6.00;4.00
76304;PMS7003;65111;50.536;19.204;2023-03-26T04:33:49;3.00;3.00;1.00
76304;PMS7003;65111;50.536;19.204;2023-03-26T04:36:24;7.00;3.00;1.00
76304;PMS7003;65111;50.536;19.204;2023-03-26T04:38:53;3.00;3.00;3.00
76304;PMS7003;65111;50.536;19.204;2023-03-26T04:41:22;6.00;4.00;3.00
76304;PMS7003;65111;50.536;19.204;2023-03-26T04:43:51;4.00;4.00;3.00
76304;PMS7003;65111;50.536;19.204;2023-03-26T04:46:19;3.00;3.00;3.00
76304;PMS7003;65111;50.536;19.204;2023-03-26T04:48:46;3.00;3.00;2.33
76304;PMS7003;65111;50.536;19.204;2023-03-26T04:51:13;1.00;1.00;1.00
76304;PMS7003;65111;50.536;19.204;2023-03-26T04:53:48;2.00;1.00;1.00
76304;PMS7003;65111;50.536;19.204;2023-03-26T04:59:25;4.00;1.00;1.00
76304;PMS7003;65111;50.536;19.204;2023-03-26T05:01:59;3.00;3.00;1.00
76304;PMS7003;65111;50.536;19.204;2023-03-26T05:04:27;1.00;1.00;0.00
76304;PMS7003;65111;50.536;19.204;2023-03-26T05:07:01;1.00;1.00;0.00
76304;PMS7003;65111;50.536;19.204;2023-03-26T05:09:27;1.00;1.00;1.00
76304;PMS7003;65111;50.536;19.204;2023-03-26T05:11:53;2.00;1.00;1.00
76304;PMS7003;65111;50.536;19.204;2023-03-26T05:14:19;1.00;1.00;1.00
76304;PMS7003;65111;50.536;19.204;2023-03-26T05:16:46;1.00;1.00;1.00
76304;PMS7003;65111;50.536;19.204;2023-03-26T05:19:13;1.00;1.00;0.67
76304;PMS7003;65111;50.536;19.204;2023-03-26T05:21:39;3.00;3.00;1.00
76304;PMS7003;65111;50.536;19.204;2023-03-26T05:24:05;4.00;1.00;1.00
76304;PMS7003;65111;50.536;19.204;2023-03-26T05:26:32;1.00;1.00;0.00
76304;PMS7003;65111;50.536;19.204;2023-03-26T05:28:59;3.00;3.00;2.00
76304;PMS7003;65111;50.536;19.204;2023-03-26T05:31:27;3.00;3.00;2.00
76304;PMS7003;65111;50.536;19.204;2023-03-26T05:33:56;3.00;3.00;1.00
76304;PMS7003;65111;50.536;19.204;2023-03-26T05:36:24;4.00;4.00;4.00
76304;PMS7003;65111;50.536;19.204;2023-03-26T05:38:52;3.00;3.00;3.00
76304;PMS7003;65111;50.536;19.204;2023-03-26T05:41:18;6.67;4.00;3.33
76304;PMS7003;65111;50.536;19.204;2023-03-26T05:43:45;4.00;4.00;3.00
76304;PMS7003;65111;50.536;19.204;2023-03-26T05:46:12;5.00;5.00;3.33
76304;PMS7003;65111;50.536;19.204;2023-03-26T05:48:39;4.00;4.00;4.00
76304;PMS7003;65111;50.536;19.204;2023-03-26T05:51:05;7.00;7.00;6.00
76304;PMS7003;65111;50.536;19.204;2023-03-26T05:53:32;12.00;7.00;4.00
76304;PMS7003;65111;50.536;19.204;2023-03-26T05:55:59;10.00;6.50;5.00
76304;PMS7003;65111;50.536;19.204;2023-03-26T05:58:30;5.50;4.50;4.00
76304;PMS7003;65111;50.536;19.204;2023-03-26T06:00:59;4.00;4.00;3.00
76304;PMS7003;65111;50.536;19.204;2023-03-26T06:03:30;12.00;8.50;7.00
76304;PMS7003;65111;50.536;19.204;2023-03-26T06:05:57;5.00;5.00;5.00
76304;PMS7003;65111;50.536;19.204;2023-03-26T06:08:24;9.00;7.00;5.00
76304;PMS7003;65111;50.536;19.204;2023-03-26T06:10:56;7.00;6.50;4.00
76304;PMS7003;65111;50.536;19.204;2023-03-26T06:13:23;5.00;5.00;4.00
76304;PMS7003;65111;50.536;19.204;2023-03-26T06:15:50;4.50;3.00;2.00
76304;PMS7003;65111;50.536;19.204;2023-03-26T06:18:16;4.50;4.50;4.00
76304;PMS7003;65111;50.536;19.204;2023-03-26T06:20:43;5.00;5.00;3.00
76304;PMS7003;65111;50.536;19.204;2023-03-26T06:23:09;6.00;6.00;4.00
76304;PMS7003;65111;50.536;19.204;2023-03-26T06:25:35;6.00;5.00;4.00
76304;PMS7003;65111;50.536;19.204;2023-03-26T06:28:02;5.50;5.50;5.00
76304;PMS7003;65111;50.536;19.204;2023-03-26T06:30:29;4.00;4.00;2.00
76304;PMS7003;65111;50.536;19.204;2023-03-26T06:32:55;5.00;4.00;2.00
76304;PMS7003;65111;50.536;19.204;2023-03-26T06:35:21;2.00;2.00;1.33
76304;PMS7003;65111;50.536;19.204;2023-03-26T06:37:47;1.00;1.00;1.00
76304;PMS7003;65111;50.536;19.204;2023-03-26T06:40:13;5.00;5.00;4.00
76304;PMS7003;65111;50.536;19.204;2023-03-26T06:42:39;5.00;4.00;4.00
76304;PMS7003;65111;50.536;19.204;2023-03-26T06:45:05;2.00;2.00;1.00
76304;PMS7003;65111;50.536;19.204;2023-03-26T06:47:32;4.00;4.00;4.00
76304;PMS7003;65111;50.536;19.204;2023-03-26T06:49:58;3.50;3.00;2.00
76304;PMS7003;65111;50.536;19.204;2023-03-26T06:52:24;7.50;5.50;4.50
76304;PMS7003;65111;50.536;19.204;2023-03-26T06:54:50;7.00;4.00;4.00
76304;PMS7003;65111;50.536;19.204;2023-03-26T06:57:16;7.00;3.00;0.50
76304;PMS7003;65111;50.536;19.204;2023-03-26T06:59:42;13.33;13.33;9.33
76304;PMS7003;65111;50.536;19.204;2023-03-26T07:02:09;70.50;53.50;33.00
76304;PMS7003;65111;50.536;19.204;2023-03-26T07:04:36;61.00;44.00;27.00
76304;PMS7003;65111;50.536;19.204;2023-03-26T07:07:02;20.00;17.00;12.67
76304;PMS7003;65111;50.536;19.204;2023-03-26T07:09:28;6.00;6.00;5.00
76304;PMS7003;65111;50.536;19.204;2023-03-26T07:11:57;4.50;4.00;2.00
76304;PMS7003;65111;50.536;19.204;2023-03-26T07:14:23;7.00;5.00;4.00
76304;PMS7003;65111;50.536;19.204;2023-03-26T07:16:52;3.00;2.00;2.00
76304;PMS7003;65111;50.536;19.204;2023-03-26T07:19:18;4.00;2.00;2.00
76304;PMS7003;65111;50.536;19.204;2023-03-26T07:21:45;4.00;4.00;2.00
76304;PMS7003;65111;50.536;19.204;2023-03-26T07:24:11;3.00;3.00;2.00
76304;PMS7003;65111;50.536;19.204;2023-03-26T07:32:04;1.00;1.00;1.00
76304;PMS7003;65111;50.536;19.204;2023-03-26T07:34:53;1.00;1.00;1.00
76304;PMS7003;65111;50.536;19.204;2023-03-26T07:37:30;2.00;1.50;1.00
76304;PMS7003;65111;50.536;19.204;2023-03-26T07:40:08;1.00;1.00;1.00
76304;PMS7003;65111;50.536;19.204;2023-03-26T07:42:45;5.00;1.00;1.00
76304;PMS7003;65111;50.536;19.204;2023-03-26T07:45:18;1.00;1.00;0.33
76304;PMS7003;65111;50.536;19.204;2023-03-26T07:47:58;1.00;1.00;1.00
76304;PMS7003;65111;50.536;19.204;2023-03-26T07:50:25;1.00;1.00;1.00
76304;PMS7003;65111;50.536;19.204;2023-03-26T07:52:51;1.50;1.50;0.50
76304;PMS7003;65111;50.536;19.204;2023-03-26T07:55:18;0.00;0.00;0.00
76304;PMS7003;65111;50.536;19.204;2023-03-26T08:00:47;0.00;0.00;0.00
76304;PMS7003;65111;50.536;19.204;2023-03-26T08:17:12;6.00;6.00;4.00
76304;PMS7003;65111;50.536;19.204;2023-03-26T08:22:45;3.67;2.33;1.00
76304;PMS7003;65111;50.536;19.204;2023-03-26T08:25:24;2.50;2.50;2.00
76304;PMS7003;65111;50.536;19.204;2023-03-26T08:30:40;4.00;3.00;2.00
76304;PMS7003;65111;50.536;19.204;2023-03-26T08:33:11;2.00;2.00;2.00
76304;PMS7003;65111;50.536;19.204;2023-03-26T08:35:41;4.00;4.00;3.00
76304;PMS7003;65111;50.536;19.204;2023-03-26T08:38:08;4.50;3.50;3.00
76304;PMS7003;65111;50.536;19.204;2023-03-26T08:52:36;3.00;1.00;1.00
76304;PMS7003;65111;50.536;19.204;2023-03-26T08:57:59;2.00;1.00;1.00
76304;PMS7003;65111;50.536;19.204;2023-03-26T09:03:57;1.00;1.00;0.50
76304;PMS7003;65111;50.536;19.204;2023-03-26T09:26:24;2.00;0.00;0.00
76304;PMS7003;65111;50.536;19.204;2023-03-26T09:34:28;1.67;1.67;1.00
76304;PMS7003;65111;50.536;19.204;2023-03-26T09:37:23;0.00;0.00;0.00
76304;PMS7003;65111;50.536;19.204;2023-03-26T09:48:06;1.00;1.00;1.00
76304;PMS7003;65111;50.536;19.204;2023-03-26T09:56:24;1.00;1.00;0.50
76304;PMS7003;65111;50.536;19.204;2023-03-26T10:13:07;2.00;2.00;1.00
76304;PMS7003;65111;50.536;19.204;2023-03-26T10:18:10;3.00;3.00;2.00
76304;PMS7003;65111;50.536;19.204;2023-03-26T10:20:50;1.00;1.00;0.00
76304;PMS7003;65111;50.536;19.204;2023-03-26T10:36:36;7.00;4.00;4.00
76304;PMS7003;65111;50.536;19.204;2023-03-26T10:39:20;5.00;4.00;3.00
76304;PMS7003;65111;50.536;19.204;2023-03-26T10:55:41;2.00;2.00;2.00
76304;PMS7003;65111;50.536;19.204;2023-03-26T10:58:33;2.00;2.00;1.50
76304;PMS7003;65111;50.536;19.204;2023-03-26T11:01:23;1.00;1.00;1.00
76304;PMS7003;65111;50.536;19.204;2023-03-26T11:03:59;7.00;7.00;4.00
76304;PMS7003;65111;50.536;19.204;2023-03-26T11:06:53;2.00;2.00;2.00
76304;PMS7003;65111;50.536;19.204;2023-03-26T11:09:58;0.00;0.00;0.00
76304;PMS7003;65111;50.536;19.204;2023-03-26T11:17:47;2.50;2.00;2.00
76304;PMS7003;65111;50.536;19.204;2023-03-26T11:20:31;4.67;3.67;3.00
76304;PMS7003;65111;50.536;19.204;2023-03-26T11:28:42;2.00;2.00;2.00
76304;PMS7003;65111;50.536;19.204;2023-03-26T11:34:31;3.00;3.00;2.00
76304;PMS7003;65111;50.536;19.204;2023-03-26T11:37:03;2.00;2.00;2.00
76304;PMS7003;65111;50.536;19.204;2023-03-26T11:39:43;2.00;2.00;1.00
76304;PMS7003;65111;50.536;19.204;2023-03-26T11:42:20;1.00;1.00;1.00
76304;PMS7003;65111;50.536;19.204;2023-03-26T11:45:04;3.00;2.00;1.00
76304;PMS7003;65111;50.536;19.204;2023-03-26T11:47:34;2.00;2.00;2.00
76304;PMS7003;65111;50.536;19.204;2023-03-26T11:50:05;1.00;1.00;1.00
76304;PMS7003;65111;50.536;19.204;2023-03-26T11:52:40;2.00;1.00;0.00
76304;PMS7003;65111;50.536;19.204;2023-03-26T11:55:09;1.00;0.00;0.00
76304;PMS7003;65111;50.536;19.204;2023-03-26T11:57:37;3.50;2.00;2.00
76304;PMS7003;65111;50.536;19.204;2023-03-26T12:00:11;8.00;7.00;5.00
76304;PMS7003;65111;50.536;19.204;2023-03-26T12:02:42;7.50;7.50;4.00
76304;PMS7003;65111;50.536;19.204;2023-03-26T12:05:18;5.00;5.00;3.00
76304;PMS7003;65111;50.536;19.204;2023-03-26T12:07:48;3.50;1.00;1.00
76304;PMS7003;65111;50.536;19.204;2023-03-26T12:12:58;0.00;0.00;0.00
76304;PMS7003;65111;50.536;19.204;2023-03-26T12:15:27;1.00;1.00;1.00
76304;PMS7003;65111;50.536;19.204;2023-03-26T12:17:56;1.00;1.00;0.00
76304;PMS7003;65111;50.536;19.204;2023-03-26T12:22:53;0.00;0.00;0.00
76304;PMS7003;65111;50.536;19.204;2023-03-26T12:25:27;0.00;0.00;0.00
76304;PMS7003;65111;50.536;19.204;2023-03-26T12:28:02;0.00;0.00;0.00
76304;PMS7003;65111;50.536;19.204;2023-03-26T12:33:28;2.00;1.00;1.00
76304;PMS7003;65111;50.536;19.204;2023-03-26T12:36:15;3.00;3.00;2.00
76304;PMS7003;65111;50.536;19.204;2023-03-26T12:38:45;1.00;1.00;1.00
76304;PMS7003;65111;50.536;19.204;2023-03-26T12:41:11;1.00;1.00;1.00
76304;PMS7003;65111;50.536;19.204;2023-03-26T12:43:40;3.00;3.00;3.00
76304;PMS7003;65111;50.536;19.204;2023-03-26T12:46:26;3.00;3.00;2.00
76304;PMS7003;65111;50.536;19.204;2023-03-26T12:48:56;6.00;5.00;3.00
76304;PMS7003;65111;50.536;19.204;2023-03-26T12:59:39;1.00;1.00;1.00
76304;PMS7003;65111;50.536;19.204;2023-03-26T13:31:29;1.00;1.00;1.00
76304;PMS7003;65111;50.536;19.204;2023-03-26T13:36:38;1.00;1.00;0.00
76304;PMS7003;65111;50.536;19.204;2023-03-26T13:39:25;2.00;2.00;1.50
76304;PMS7003;65111;50.536;19.204;2023-03-26T13:42:06;1.00;1.00;1.00
76304;PMS7003;65111;50.536;19.204;2023-03-26T13:47:24;1.00;1.00;1.00
76304;PMS7003;65111;50.536;19.204;2023-03-26T13:52:59;1.00;1.00;0.50
76304;PMS7003;65111;50.536;19.204;2023-03-26T13:55:37;0.00;0.00;0.00
76304;PMS7003;65111;50.536;19.204;2023-03-26T14:06:10;0.00;0.00;0.00
76304;PMS7003;65111;50.536;19.204;2023-03-26T14:09:10;2.00;2.00;1.00
76304;PMS7003;65111;50.536;19.204;2023-03-26T14:17:05;1.00;1.00;0.00
76304;PMS7003;65111;50.536;19.204;2023-03-26T14:22:45;1.00;1.00;0.00
76304;PMS7003;65111;50.536;19.204;2023-03-26T14:38:52;1.00;1.00;0.50
76304;PMS7003;65111;50.536;19.204;2023-03-26T14:41:24;1.00;1.00;1.00
76304;PMS7003;65111;50.536;19.204;2023-03-26T14:49:47;1.00;1.00;0.00
76304;PMS7003;65111;50.536;19.204;2023-03-26T14:54:58;1.00;1.00;1.00
76304;PMS7003;65111;50.536;19.204;2023-03-26T15:11:56;1.00;1.00;1.00
76304;PMS7003;65111;50.536;19.204;2023-03-26T15:22:58;0.00;0.00;0.00
76304;PMS7003;65111;50.536;19.204;2023-03-26T15:39:49;2.00;1.00;0.00
76304;PMS7003;65111;50.536;19.204;2023-03-26T15:48:33;2.00;0.00;0.00
76304;PMS7003;65111;50.536;19.204;2023-03-26T15:51:27;1.00;0.00;0.00
76304;PMS7003;65111;50.536;19.204;2023-03-26T15:54:02;0.00;0.00;0.00
76304;PMS7003;65111;50.536;19.204;2023-03-26T15:59:57;1.50;1.00;0.50
76304;PMS7003;65111;50.536;19.204;2023-03-26T16:11:05;0.00;0.00;0.00
76304;PMS7003;65111;50.536;19.204;2023-03-26T16:21:59;0.00;0.00;0.00
76304;PMS7003;65111;50.536;19.204;2023-03-26T16:24:28;0.00;0.00;0.00
76304;PMS7003;65111;50.536;19.204;2023-03-26T16:32:41;0.00;0.00;0.00
76304;PMS7003;65111;50.536;19.204;2023-03-26T16:37:41;0.00;0.00;0.00
76304;PMS7003;65111;50.536;19.204;2023-03-26T16:51:39;0.00;0.00;0.00
76304;PMS7003;65111;50.536;19.204;2023-03-26T16:54:35;0.50;0.50;0.00
76304;PMS7003;65111;50.536;19.204;2023-03-26T17:05:46;4.00;4.00;2.00
76304;PMS7003;65111;50.536;19.204;2023-03-26T17:08:17;5.00;1.00;1.00
76304;PMS7003;65111;50.536;19.204;2023-03-26T17:19:25;1.00;1.00;1.00
76304;PMS7003;65111;50.536;19.204;2023-03-26T17:22:10;4.00;2.00;1.00
76304;PMS7003;65111;50.536;19.204;2023-03-26T17:35:45;13.00;9.00;5.50
76304;PMS7003;65111;50.536;19.204;2023-03-26T17:43:36;5.00;4.50;4.00
76304;PMS7003;65111;50.536;19.204;2023-03-26T17:48:44;3.00;3.00;3.00
76304;PMS7003;65111;50.536;19.204;2023-03-26T17:53:46;4.00;3.00;3.00
76304;PMS7003;65111;50.536;19.204;2023-03-26T17:56:18;7.00;4.00;4.00
76304;PMS7003;65111;50.536;19.204;2023-03-26T17:58:49;1.00;1.00;0.33
76304;PMS7003;65111;50.536;19.204;2023-03-26T18:01:56;2.00;1.00;0.00
76304;PMS7003;65111;50.536;19.204;2023-03-26T18:04:27;6.67;5.33;3.67
76304;PMS7003;65111;50.536;19.204;2023-03-26T18:07:07;3.00;3.00;1.00
76304;PMS7003;65111;50.536;19.204;2023-03-26T18:15:44;15.50;11.50;8.00
76304;PMS7003;65111;50.536;19.204;2023-03-26T18:18:17;12.00;12.00;9.00
76304;PMS7003;65111;50.536;19.204;2023-03-26T18:20:48;12.00;7.00;4.00
76304;PMS7003;65111;50.536;19.204;2023-03-26T18:23:21;6.00;6.00;4.00
76304;PMS7003;65111;50.536;19.204;2023-03-26T18:26:18;18.00;13.50;8.00
76304;PMS7003;65111;50.536;19.204;2023-03-26T18:29:15;18.00;13.00;10.00
76304;PMS7003;65111;50.536;19.204;2023-03-26T18:31:52;15.00;9.00;6.00
76304;PMS7003;65111;50.536;19.204;2023-03-26T18:34:22;16.00;13.00;9.00
76304;PMS7003;65111;50.536;19.204;2023-03-26T18:37:07;16.00;15.00;7.00
76304;PMS7003;65111;50.536;19.204;2023-03-26T18:39:43;16.50;12.50;9.00
76304;PMS7003;65111;50.536;19.204;2023-03-26T18:42:20;21.50;14.00;9.50
76304;PMS7003;65111;50.536;19.204;2023-03-26T18:44:48;17.50;16.00;10.00
76304;PMS7003;65111;50.536;19.204;2023-03-26T18:47:15;18.33;14.33;7.67
76304;PMS7003;65111;50.536;19.204;2023-03-26T18:49:46;19.00;13.00;9.00
76304;PMS7003;65111;50.536;19.204;2023-03-26T18:52:16;18.00;15.50;10.00
76304;PMS7003;65111;50.536;19.204;2023-03-26T18:54:47;25.00;19.00;12.00
76304;PMS7003;65111;50.536;19.204;2023-03-26T18:57:28;55.50;46.50;26.00
76304;PMS7003;65111;50.536;19.204;2023-03-26T18:59:59;60.33;48.00;30.00
76304;PMS7003;65111;50.536;19.204;2023-03-26T19:02:40;48.00;41.50;23.00
76304;PMS7003;65111;50.536;19.204;2023-03-26T19:05:10;36.00;31.00;18.00
76304;PMS7003;65111;50.536;19.204;2023-03-26T19:07:41;27.00;24.00;13.00
76304;PMS7003;65111;50.536;19.204;2023-03-26T19:10:13;33.00;30.50;18.50
76304;PMS7003;65111;50.536;19.204;2023-03-26T19:12:43;39.00;33.00;19.00
76304;PMS7003;65111;50.536;19.204;2023-03-26T19:15:12;46.00;40.33;19.00
76304;PMS7003;65111;50.536;19.204;2023-03-26T19:17:42;63.00;49.00;31.00
76304;PMS7003;65111;50.536;19.204;2023-03-26T19:20:17;47.00;44.00;26.00
76304;PMS7003;65111;50.536;19.204;2023-03-26T19:22:47;36.50;33.50;19.00
76304;PMS7003;65111;50.536;19.204;2023-03-26T19:25:21;33.00;25.00;12.00
76304;PMS7003;65111;50.536;19.204;2023-03-26T19:27:52;23.00;18.50;13.00
76304;PMS7003;65111;50.536;19.204;2023-03-26T19:30:29;30.00;27.00;15.00
76304;PMS7003;65111;50.536;19.204;2023-03-26T19:33:00;19.00;16.00;11.00
76304;PMS7003;65111;50.536;19.204;2023-03-26T19:35:44;43.50;40.00;24.50
76304;PMS7003;65111;50.536;19.204;2023-03-26T19:38:25;36.00;36.00;23.00
76304;PMS7003;65111;50.536;19.204;2023-03-26T19:40:53;34.00;31.00;18.00
76304;PMS7003;65111;50.536;19.204;2023-03-26T19:43:22;34.00;34.00;19.00
76304;PMS7003;65111;50.536;19.204;2023-03-26T19:45:49;24.00;22.00;16.00
76304;PMS7003;65111;50.536;19.204;2023-03-26T19:48:18;30.00;30.00;19.00
76304;PMS7003;65111;50.536;19.204;2023-03-26T19:50:58;28.00;22.00;12.00
76304;PMS7003;65111;50.536;19.204;2023-03-26T19:53:33;24.00;19.00;13.00
76304;PMS7003;65111;50.536;19.204;2023-03-26T19:58:38;17.50;17.50;12.00
76304;PMS7003;65111;50.536;19.204;2023-03-26T20:01:05;29.00;26.00;17.50
76304;PMS7003;65111;50.536;19.204;2023-03-26T20:03:47;24.00;24.00;14.00
76304;PMS7003;65111;50.536;19.204;2023-03-26T20:06:16;25.00;22.00;14.00
76304;PMS7003;65111;50.536;19.204;2023-03-26T20:08:44;27.50;22.00;15.00
76304;PMS7003;65111;50.536;19.204;2023-03-26T20:11:18;19.00;18.00;13.00
76304;PMS7003;65111;50.536;19.204;2023-03-26T20:13:59;15.00;13.00;10.00
76304;PMS7003;65111;50.536;19.204;2023-03-26T20:16:26;13.00;10.00;9.00
76304;PMS7003;65111;50.536;19.204;2023-03-26T20:18:54;13.00;12.00;9.00
76304;PMS7003;65111;50.536;19.204;2023-03-26T20:21:22;10.00;8.00;5.00
76304;PMS7003;65111;50.536;19.204;2023-03-26T20:23:49;18.50;14.00;10.00
76304;PMS7003;65111;50.536;19.204;2023-03-26T20:26:18;74.00;56.00;32.00
76304;PMS7003;65111;50.536;19.204;2023-03-26T20:28:45;44.50;38.00;17.50
76304;PMS7003;65111;50.536;19.204;2023-03-26T20:31:19;19.00;17.33;10.33
76304;PMS7003;65111;50.536;19.204;2023-03-26T20:33:49;22.00;19.00;10.50
76304;PMS7003;65111;50.536;19.204;2023-03-26T20:36:16;16.00;13.00;7.00
76304;PMS7003;65111;50.536;19.204;2023-03-26T20:38:43;16.00;15.50;9.00
76304;PMS7003;65111;50.536;19.204;2023-03-26T20:41:17;7.00;7.00;6.00
76304;PMS7003;65111;50.536;19.204;2023-03-26T20:43:47;8.00;7.00;4.00
76304;PMS7003;65111;50.536;19.204;2023-03-26T20:46:19;13.33;8.00;5.00
76304;PMS7003;65111;50.536;19.204;2023-03-26T20:48:47;7.50;6.00;4.00
76304;PMS7003;65111;50.536;19.204;2023-03-26T20:51:16;9.33;7.33;5.33
76304;PMS7003;65111;50.536;19.204;2023-03-26T20:53:44;7.00;4.00;2.00
76304;PMS7003;65111;50.536;19.204;2023-03-26T20:56:13;6.00;6.00;6.00
76304;PMS7003;65111;50.536;19.204;2023-03-26T20:58:42;10.00;4.00;2.00